Mira, Louisiana
Current Conditions -  °F | °C
As of 4:53 PM on Tuesday 25 Nov 2014 (Local Time) from KDTN Reporting Station
Clear Clear  
Wind Chill: 56°   Ceiling: Unl
Heat Index: 56°   Visibility: 10mi
Dew Point: 24°   Wind: 0mph
Humidity: 29%   Direction: NA
Pressure: 30.18"   Gusts: NA
Location:  32.9743°N, 93.8778°W
Report Text: KDTN 252253Z 00000KT 10SM CLR 13/M04 A3018 RMK AO2 SLP219 T01331044
Loading
Personal Weather Stations






























Interactive Weather Map New forecast layout! Learn more

10-Day Weather Forecast

Advertisements
Track Severe Weather on mobile